Weather at Gaziemir Air Base

Public forecast

Using degrees Celsius for public forecast. Weather courtesy of forecast.io.

Closest aviation weather report (METAR) to Gaziemir Air Base

Closest report is Adnan Menderes International Airport, 1.6 nm (3.0 km) S.

2024/04/25 03:50 (retrieved 25 minutes ago)

LTBJ 250350Z VRB02KT 9999 FEW030 BKN200 16/16 Q1005 NOSIG RMK RWY16 19004KT

Closest aviation forecast (TAF) to Gaziemir Air Base

Forecast is more than 12 hours old.

Closest forecast is Kukës International Airport, 381.2 nm (706.1 km) NW.

2024/04/24 12:00 Ammendment (retrieved 16 hours ago)

TAF AMD LAKU 241526Z 2412/2512 CNL